Aurora State Airport Aurora US
ICAO: KUAO
IATA: UAO
Category: Medium
Scheduled Services: No

Elevation: 200 ft
TransAlt. 18000 ft.

Airport Communications:
PORTLAND APP/DEP:126
ASOS:118.525
PORTLAND CLNC DEL:119.95
CTAF/UNICOM:122.7

KUAO Zoom In..

If you have problems with the map follow the link
https://www.worldairports.se/pages/airport.php?
ICAO=KUAO

Runways:

(A) RW 17 length 5004 ft width 100 ft
LOC 111.15 / hdg 169

(B) RW 35 length 5004 ft width 100 ft
LOC 111.15 / hdg 349

Location; KUAO
Day. 11 / Time. 14.19 Zulu
* Altimeter: 30.07
* Temperature: 07° c. 44.6°f.
* Wind from: 080° Speed 03 kn.
Dewpoint: 06° c.
Visibility: 3 Statute Miles.
Clouds: Broken 1400 ft.
Clouds: Broken 1800 ft.
Clouds: Overcast 2300 ft.
Conditions: Light Rain.Conditions: Mist.

KUAO 111419Z AUTO 08003KT 3SM -RA BR BKN014 BKN018 OVC023 07/06 A3007 RMK AO2 P0001 T00670056


Wind From 080°
Speed 03 kn.

 
 
jpsmedia worldairports.se 2019   terms of use